sensor_id;sensor_type;location;lat;lon;timestamp;pressure;altitude;pressure_sealevel;temperature;humidity
29461;BME280;16428;47.836;35.106;2024-02-23T00:01:34;101930.63;;;0.94;100.00
29461;BME280;16428;47.836;35.106;2024-02-23T00:04:02;101935.91;;;1.25;100.00
29461;BME280;16428;47.836;35.106;2024-02-23T00:06:29;101944.28;;;1.33;100.00
29461;BME280;16428;47.836;35.106;2024-02-23T00:08:56;101942.16;;;1.09;100.00
29461;BME280;16428;47.836;35.106;2024-02-23T00:11:24;101939.09;;;1.16;100.00
29461;BME280;16428;47.836;35.106;2024-02-23T00:13:51;101943.44;;;1.17;100.00
29461;BME280;16428;47.836;35.106;2024-02-23T00:16:19;101944.16;;;1.05;100.00
29461;BME280;16428;47.836;35.106;2024-02-23T00:18:46;101944.63;;;1.27;100.00
29461;BME280;16428;47.836;35.106;2024-02-23T00:21:14;101948.75;;;1.17;100.00
29461;BME280;16428;47.836;35.106;2024-02-23T00:23:41;101951.03;;;1.08;100.00
29461;BME280;16428;47.836;35.106;2024-02-23T00:26:08;101942.94;;;1.11;100.00
29461;BME280;16428;47.836;35.106;2024-02-23T00:28:35;101940.28;;;1.26;100.00
29461;BME280;16428;47.836;35.106;2024-02-23T00:31:02;101943.44;;;1.17;100.00
29461;BME280;16428;47.836;35.106;2024-02-23T00:33:30;101950.78;;;1.12;100.00
29461;BME280;16428;47.836;35.106;2024-02-23T00:35:56;101951.03;;;1.08;100.00
29461;BME280;16428;47.836;35.106;2024-02-23T00:38:23;101947.72;;;1.04;100.00
29461;BME280;16428;47.836;35.106;2024-02-23T00:40:51;101945.31;;;0.99;100.00
29461;BME280;16428;47.836;35.106;2024-02-23T00:43:19;101947.72;;;1.04;100.00
29461;BME280;16428;47.836;35.106;2024-02-23T00:45:46;101944.31;;;1.02;100.00
29461;BME280;16428;47.836;35.106;2024-02-23T00:48:13;101942.44;;;1.04;100.00
29461;BME280;16428;47.836;35.106;2024-02-23T00:50:40;101943.22;;;1.06;100.00
29461;BME280;16428;47.836;35.106;2024-02-23T00:53:07;101944.72;;;1.10;100.00
29461;BME280;16428;47.836;35.106;2024-02-23T00:55:34;101933.03;;;0.83;100.00
29461;BME280;16428;47.836;35.106;2024-02-23T00:58:04;101934.41;;;0.90;100.00
29461;BME280;16428;47.836;35.106;2024-02-23T01:00:31;101933.34;;;0.77;100.00
29461;BME280;16428;47.836;35.106;2024-02-23T01:02:58;101936.47;;;1.00;100.00
29461;BME280;16428;47.836;35.106;2024-02-23T01:05:26;101928.94;;;0.93;100.00
29461;BME280;16428;47.836;35.106;2024-02-23T01:07:53;101926.81;;;0.84;100.00
29461;BME280;16428;47.836;35.106;2024-02-23T01:10:20;101925.78;;;0.70;100.00
29461;BME280;16428;47.836;35.106;2024-02-23T01:12:47;101926.56;;;0.73;100.00
29461;BME280;16428;47.836;35.106;2024-02-23T01:15:15;101920.91;;;0.63;100.00
29461;BME280;16428;47.836;35.106;2024-02-23T01:17:42;101926.41;;;0.76;100.00
29461;BME280;16428;47.836;35.106;2024-02-23T01:20:09;101924.50;;;0.78;100.00
29461;BME280;16428;47.836;35.106;2024-02-23T01:22:36;101919.72;;;0.68;100.00
29461;BME280;16428;47.836;35.106;2024-02-23T01:25:04;101921.25;;;0.73;100.00
29461;BME280;16428;47.836;35.106;2024-02-23T01:27:31;101917.31;;;0.80;100.00
29461;BME280;16428;47.836;35.106;2024-02-23T01:29:58;101915.63;;;0.79;100.00
29461;BME280;16428;47.836;35.106;2024-02-23T01:32:26;101917.16;;;0.83;100.00
29461;BME280;16428;47.836;35.106;2024-02-23T01:34:53;101936.63;;;0.82;100.00
29461;BME280;16428;47.836;35.106;2024-02-23T01:37:20;101936.97;;;0.76;100.00
29461;BME280;16428;47.836;35.106;2024-02-23T01:39:51;101944.72;;;0.94;100.00
29461;BME280;16428;47.836;35.106;2024-02-23T01:42:18;101951.16;;;1.06;100.00
29461;BME280;16428;47.836;35.106;2024-02-23T01:44:45;101938.78;;;1.07;100.00
29461;BME280;16428;47.836;35.106;2024-02-23T01:47:12;101937.31;;;0.85;100.00
29461;BME280;16428;47.836;35.106;2024-02-23T01:49:39;101945.00;;;0.90;100.00
29461;BME280;16428;47.836;35.106;2024-02-23T01:52:06;101944.72;;;0.79;100.00
29461;BME280;16428;47.836;35.106;2024-02-23T01:54:33;101946.03;;;0.87;100.00
29461;BME280;16428;47.836;35.106;2024-02-23T01:57:01;101947.44;;;0.93;100.00
29461;BME280;16428;47.836;35.106;2024-02-23T01:59:49;101950.69;;;0.82;100.00
29461;BME280;16428;47.836;35.106;2024-02-23T02:02:16;101949.06;;;0.64;100.00
29461;BME280;16428;47.836;35.106;2024-02-23T02:04:43;101957.75;;;0.66;100.00
29461;BME280;16428;47.836;35.106;2024-02-23T02:07:10;101957.16;;;0.77;100.00
29461;BME280;16428;47.836;35.106;2024-02-23T02:09:37;101965.09;;;0.77;100.00
29461;BME280;16428;47.836;35.106;2024-02-23T02:12:04;101961.19;;;0.84;100.00
29461;BME280;16428;47.836;35.106;2024-02-23T02:14:32;101961.34;;;0.65;100.00
29461;BME280;16428;47.836;35.106;2024-02-23T02:17:00;101958.44;;;0.69;100.00
29461;BME280;16428;47.836;35.106;2024-02-23T02:19:27;101960.84;;;0.74;100.00
29461;BME280;16428;47.836;35.106;2024-02-23T02:21:55;101957.06;;;0.62;100.00
29461;BME280;16428;47.836;35.106;2024-02-23T02:24:22;101948.72;;;0.70;100.00
29461;BME280;16428;47.836;35.106;2024-02-23T02:26:51;101944.78;;;0.61;100.00
29461;BME280;16428;47.836;35.106;2024-02-23T02:29:18;101955.56;;;0.74;100.00
29461;BME280;16428;47.836;35.106;2024-02-23T02:31:46;101949.66;;;0.69;100.00
29461;BME280;16428;47.836;35.106;2024-02-23T02:34:13;101947.25;;;0.64;100.00
29461;BME280;16428;47.836;35.106;2024-02-23T02:36:41;101943.78;;;0.80;100.00
29461;BME280;16428;47.836;35.106;2024-02-23T02:39:08;101934.91;;;0.81;100.00
29461;BME280;16428;47.836;35.106;2024-02-23T02:41:37;101925.78;;;0.70;100.00
29461;BME280;16428;47.836;35.106;2024-02-23T02:44:04;101935.63;;;0.51;100.00
29461;BME280;16428;47.836;35.106;2024-02-23T02:46:31;101939.69;;;0.58;100.00
29461;BME280;16428;47.836;35.106;2024-02-23T02:48:58;101929.97;;;0.75;100.00
29461;BME280;16428;47.836;35.106;2024-02-23T02:51:25;101925.63;;;0.74;100.00
29461;BME280;16428;47.836;35.106;2024-02-23T02:53:52;101921.34;;;0.71;100.00
29461;BME280;16428;47.836;35.106;2024-02-23T02:56:20;101937.63;;;0.63;100.00
29461;BME280;16428;47.836;35.106;2024-02-23T02:58:46;101937.63;;;0.63;100.00
29461;BME280;16428;47.836;35.106;2024-02-23T03:01:14;101932.44;;;0.93;100.00
29461;BME280;16428;47.836;35.106;2024-02-23T03:03:41;101934.91;;;0.81;100.00
29461;BME280;16428;47.836;35.106;2024-02-23T03:06:08;101931.84;;;0.73;100.00
29461;BME280;16428;47.836;35.106;2024-02-23T03:08:35;101938.16;;;0.70;100.00
29461;BME280;16428;47.836;35.106;2024-02-23T03:11:02;101932.63;;;0.75;100.00
29461;BME280;16428;47.836;35.106;2024-02-23T03:13:29;101931.00;;;0.88;100.00
29461;BME280;16428;47.836;35.106;2024-02-23T03:15:58;101936.00;;;0.77;100.00
29461;BME280;16428;47.836;35.106;2024-02-23T03:18:25;101936.13;;;0.75;100.00
29461;BME280;16428;47.836;35.106;2024-02-23T03:20:54;101939.94;;;0.69;100.00
29461;BME280;16428;47.836;35.106;2024-02-23T03:23:22;101960.84;;;0.74;100.00
29461;BME280;16428;47.836;35.106;2024-02-23T03:25:50;101951.34;;;0.54;100.00
29461;BME280;16428;47.836;35.106;2024-02-23T03:28:19;101953.31;;;0.66;100.00
29461;BME280;16428;47.836;35.106;2024-02-23T03:30:46;101946.00;;;0.72;100.00
29461;BME280;16428;47.836;35.106;2024-02-23T03:33:13;101954.09;;;0.68;100.00
29461;BME280;16428;47.836;35.106;2024-02-23T03:35:40;101949.91;;;0.64;100.00
29461;BME280;16428;47.836;35.106;2024-02-23T03:38:07;101962.72;;;0.72;100.00
29461;BME280;16428;47.836;35.106;2024-02-23T03:40:35;101956.59;;;0.72;100.00
29461;BME280;16428;47.836;35.106;2024-02-23T03:43:03;101954.00;;;0.54;100.00
29461;BME280;16428;47.836;35.106;2024-02-23T03:45:30;101958.09;;;0.60;100.00
29461;BME280;16428;47.836;35.106;2024-02-23T03:47:58;101955.34;;;0.61;100.00
29461;BME280;16428;47.836;35.106;2024-02-23T03:50:26;101958.06;;;0.44;100.00
29461;BME280;16428;47.836;35.106;2024-02-23T03:52:53;101965.44;;;0.70;100.00
29461;BME280;16428;47.836;35.106;2024-02-23T03:55:20;101962.47;;;0.61;100.00
29461;BME280;16428;47.836;35.106;2024-02-23T03:57:48;101965.56;;;0.52;100.00
29461;BME280;16428;47.836;35.106;2024-02-23T04:00:16;101956.16;;;0.46;100.00
29461;BME280;16428;47.836;35.106;2024-02-23T04:02:43;101973.84;;;0.46;100.00
29461;BME280;16428;47.836;35.106;2024-02-23T04:05:10;101970.81;;;0.36;100.00
29461;BME280;16428;47.836;35.106;2024-02-23T04:07:37;101967.78;;;0.44;100.00
29461;BME280;16428;47.836;35.106;2024-02-23T04:10:04;101975.66;;;0.45;100.00
29461;BME280;16428;47.836;35.106;2024-02-23T04:12:31;101977.63;;;0.57;100.00
29461;BME280;16428;47.836;35.106;2024-02-23T04:14:58;101977.81;;;0.37;100.00
29461;BME280;16428;47.836;35.106;2024-02-23T04:17:25;101975.81;;;0.42;100.00
29461;BME280;16428;47.836;35.106;2024-02-23T04:19:52;101983.00;;;0.56;100.00
29461;BME280;16428;47.836;35.106;2024-02-23T04:22:19;101985.88;;;0.51;100.00
29461;BME280;16428;47.836;35.106;2024-02-23T04:24:46;101996.78;;;0.45;100.00
29461;BME280;16428;47.836;35.106;2024-02-23T04:27:13;101987.44;;;0.55;100.00
29461;BME280;16428;47.836;35.106;2024-02-23T04:29:40;101980.22;;;0.42;100.00
29461;BME280;16428;47.836;35.106;2024-02-23T04:32:07;101987.91;;;0.46;100.00
29461;BME280;16428;47.836;35.106;2024-02-23T04:34:34;101979.03;;;0.47;100.00
29461;BME280;16428;47.836;35.106;2024-02-23T04:37:02;101979.22;;;0.44;100.00
29461;BME280;16428;47.836;35.106;2024-02-23T04:39:29;101984.16;;;0.50;100.00
29461;BME280;16428;47.836;35.106;2024-02-23T04:41:56;101990.84;;;0.57;100.00
29461;BME280;16428;47.836;35.106;2024-02-23T04:44:23;101994.75;;;0.50;100.00
29461;BME280;16428;47.836;35.106;2024-02-23T04:46:50;101995.44;;;0.54;100.00
29461;BME280;16428;47.836;35.106;2024-02-23T04:49:17;101996.09;;;0.42;100.00
29461;BME280;16428;47.836;35.106;2024-02-23T04:51:44;101998.66;;;0.43;100.00
29461;BME280;16428;47.836;35.106;2024-02-23T04:54:10;101993.91;;;0.65;100.00
29461;BME280;16428;47.836;35.106;2024-02-23T04:56:38;101998.97;;;0.37;100.00
29461;BME280;16428;47.836;35.106;2024-02-23T04:59:05;102000.38;;;0.44;100.00
29461;BME280;16428;47.836;35.106;2024-02-23T05:01:36;102004.03;;;0.24;100.00
29461;BME280;16428;47.836;35.106;2024-02-23T05:04:04;101997.50;;;0.64;100.00
29461;BME280;16428;47.836;35.106;2024-02-23T05:06:32;101993.81;;;0.51;100.00
29461;BME280;16428;47.836;35.106;2024-02-23T05:08:59;101993.50;;;0.57;100.00
29461;BME280;16428;47.836;35.106;2024-02-23T05:11:26;101999.63;;;0.58;100.00
29461;BME280;16428;47.836;35.106;2024-02-23T05:13:53;101997.34;;;0.67;100.00
29461;BME280;16428;47.836;35.106;2024-02-23T05:16:20;101997.31;;;0.52;100.00
29461;BME280;16428;47.836;35.106;2024-02-23T05:18:47;101993.34;;;0.60;100.00
29461;BME280;16428;47.836;35.106;2024-02-23T05:21:14;101999.38;;;0.62;100.00
29461;BME280;16428;47.836;35.106;2024-02-23T05:23:42;101994.09;;;0.62;100.00
29461;BME280;16428;47.836;35.106;2024-02-23T05:26:10;101996.00;;;0.92;100.00
29461;BME280;16428;47.836;35.106;2024-02-23T05:28:37;101995.81;;;0.79;100.00
29461;BME280;16428;47.836;35.106;2024-02-23T05:31:06;102004.56;;;0.97;100.00
29461;BME280;16428;47.836;35.106;2024-02-23T05:33:33;102011.91;;;1.08;100.00
29461;BME280;16428;47.836;35.106;2024-02-23T05:36:00;102002.25;;;0.91;100.00
29461;BME280;16428;47.836;35.106;2024-02-23T05:38:27;102012.41;;;0.98;100.00
29461;BME280;16428;47.836;35.106;2024-02-23T05:40:54;102008.84;;;0.99;100.00
29461;BME280;16428;47.836;35.106;2024-02-23T05:43:21;102013.19;;;1.00;100.00
29461;BME280;16428;47.836;35.106;2024-02-23T05:45:48;102017.00;;;0.95;100.00
29461;BME280;16428;47.836;35.106;2024-02-23T05:48:16;102021.97;;;1.01;100.00
29461;BME280;16428;47.836;35.106;2024-02-23T05:50:45;102019.34;;;1.01;100.00
29461;BME280;16428;47.836;35.106;2024-02-23T05:53:12;102030.00;;;1.15;100.00
29461;BME280;16428;47.836;35.106;2024-02-23T05:55:42;102024.56;;;1.18;100.00
29461;BME280;16428;47.836;35.106;2024-02-23T05:58:09;102030.53;;;1.22;100.00
29461;BME280;16428;47.836;35.106;2024-02-23T06:00:36;102023.53;;;1.05;100.00
29461;BME280;16428;47.836;35.106;2024-02-23T06:03:04;102037.78;;;1.18;100.00
29461;BME280;16428;47.836;35.106;2024-02-23T06:05:31;102030.97;;;1.46;100.00
29461;BME280;16428;47.836;35.106;2024-02-23T06:07:58;102040.16;;;1.70;100.00
29461;BME280;16428;47.836;35.106;2024-02-23T06:10:25;102031.88;;;1.76;100.00
29461;BME280;16428;47.836;35.106;2024-02-23T06:12:53;102033.03;;;1.86;100.00
29461;BME280;16428;47.836;35.106;2024-02-23T06:15:22;102030.84;;;1.79;100.00
29461;BME280;16428;47.836;35.106;2024-02-23T06:17:49;102033.75;;;1.74;100.00
29461;BME280;16428;47.836;35.106;2024-02-23T06:20:17;102035.38;;;2.06;100.00
29461;BME280;16428;47.836;35.106;2024-02-23T06:22:44;102032.84;;;2.19;100.00
29461;BME280;16428;47.836;35.106;2024-02-23T06:25:11;102025.50;;;1.94;100.00
29461;BME280;16428;47.836;35.106;2024-02-23T06:27:39;102024.47;;;2.27;100.00
29461;BME280;16428;47.836;35.106;2024-02-23T06:30:06;102036.13;;;2.38;100.00
29461;BME280;16428;47.836;35.106;2024-02-23T06:32:34;102040.94;;;2.46;100.00
29461;BME280;16428;47.836;35.106;2024-02-23T06:35:02;102046.00;;;2.51;100.00
29461;BME280;16428;47.836;35.106;2024-02-23T06:37:30;102046.06;;;2.35;100.00
29461;BME280;16428;47.836;35.106;2024-02-23T06:39:57;102049.91;;;2.59;100.00
29461;BME280;16428;47.836;35.106;2024-02-23T06:42:24;102049.34;;;2.68;100.00
29461;BME280;16428;47.836;35.106;2024-02-23T06:44:52;102043.09;;;2.83;100.00
29461;BME280;16428;47.836;35.106;2024-02-23T06:47:20;102045.25;;;2.77;100.00
29461;BME280;16428;47.836;35.106;2024-02-23T06:49:47;102050.63;;;2.75;100.00
29461;BME280;16428;47.836;35.106;2024-02-23T06:52:15;102051.50;;;2.76;100.00
29461;BME280;16428;47.836;35.106;2024-02-23T06:54:42;102042.03;;;2.58;100.00
29461;BME280;16428;47.836;35.106;2024-02-23T06:57:09;102041.72;;;2.91;100.00
29461;BME280;16428;47.836;35.106;2024-02-23T06:59:36;102043.66;;;3.03;100.00
29461;BME280;16428;47.836;35.106;2024-02-23T07:02:04;102042.13;;;2.99;100.00
29461;BME280;16428;47.836;35.106;2024-02-23T07:04:31;102042.69;;;3.18;100.00
29461;BME280;16428;47.836;35.106;2024-02-23T07:06:59;102031.00;;;3.35;100.00
29461;BME280;16428;47.836;35.106;2024-02-23T07:09:26;102038.97;;;3.06;100.00
29461;BME280;16428;47.836;35.106;2024-02-23T07:11:53;102036.22;;;3.08;100.00
29461;BME280;16428;47.836;35.106;2024-02-23T07:14:20;102040.50;;;3.51;100.00
29461;BME280;16428;47.836;35.106;2024-02-23T07:16:49;102041.72;;;3.33;100.00
29461;BME280;16428;47.836;35.106;2024-02-23T07:19:16;102032.66;;;3.50;100.00
29461;BME280;16428;47.836;35.106;2024-02-23T07:21:43;102024.38;;;3.54;100.00
29461;BME280;16428;47.836;35.106;2024-02-23T07:24:10;102033.25;;;3.41;100.00
29461;BME280;16428;47.836;35.106;2024-02-23T07:26:38;102030.25;;;3.60;100.00
29461;BME280;16428;47.836;35.106;2024-02-23T07:29:06;102027.97;;;3.53;100.00
29461;BME280;16428;47.836;35.106;2024-02-23T07:31:33;102046.66;;;3.66;100.00
29461;BME280;16428;47.836;35.106;2024-02-23T07:34:01;102041.31;;;3.93;100.00
29461;BME280;16428;47.836;35.106;2024-02-23T07:36:29;102031.22;;;3.98;100.00
29461;BME280;16428;47.836;35.106;2024-02-23T07:38:57;102035.25;;;3.91;100.00
29461;BME280;16428;47.836;35.106;2024-02-23T07:41:24;102038.72;;;4.18;100.00
29461;BME280;16428;47.836;35.106;2024-02-23T07:43:51;102030.94;;;4.15;100.00
29461;BME280;16428;47.836;35.106;2024-02-23T07:46:18;102042.78;;;4.24;100.00
29461;BME280;16428;47.836;35.106;2024-02-23T07:48:47;102033.97;;;4.36;100.00
29461;BME280;16428;47.836;35.106;2024-02-23T07:51:15;102045.69;;;4.59;100.00
29461;BME280;16428;47.836;35.106;2024-02-23T07:53:42;102046.31;;;4.63;100.00
29461;BME280;16428;47.836;35.106;2024-02-23T07:56:09;102038.78;;;4.82;100.00
29461;BME280;16428;47.836;35.106;2024-02-23T07:58:36;102038.19;;;5.15;100.00
29461;BME280;16428;47.836;35.106;2024-02-23T08:01:03;102039.25;;;5.12;100.00
29461;BME280;16428;47.836;35.106;2024-02-23T08:03:31;102032.25;;;5.48;100.00
29461;BME280;16428;47.836;35.106;2024-02-23T08:05:58;102030.53;;;5.71;100.00
29461;BME280;16428;47.836;35.106;2024-02-23T08:08:29;102030.44;;;5.72;100.00
29461;BME280;16428;47.836;35.106;2024-02-23T08:10:59;102026.31;;;6.27;100.00
29461;BME280;16428;47.836;35.106;2024-02-23T08:13:26;102025.72;;;6.23;100.00
29461;BME280;16428;47.836;35.106;2024-02-23T08:15:54;102030.00;;;6.37;98.22
29461;BME280;16428;47.836;35.106;2024-02-23T08:18:21;102025.78;;;6.57;95.87
29461;BME280;16428;47.836;35.106;2024-02-23T08:20:51;102040.34;;;6.75;95.67
29461;BME280;16428;47.836;35.106;2024-02-23T08:23:18;102033.34;;;6.96;91.64
29461;BME280;16428;47.836;35.106;2024-02-23T08:25:50;102036.97;;;7.18;91.05
29461;BME280;16428;47.836;35.106;2024-02-23T08:28:20;102041.56;;;7.38;90.22
29461;BME280;16428;47.836;35.106;2024-02-23T08:30:48;102037.53;;;7.44;89.26
29461;BME280;16428;47.836;35.106;2024-02-23T08:33:16;102043.22;;;7.50;88.17
29461;BME280;16428;47.836;35.106;2024-02-23T08:35:43;102033.25;;;7.63;87.19
29461;BME280;16428;47.836;35.106;2024-02-23T08:38:10;102032.81;;;7.47;87.91
29461;BME280;16428;47.836;35.106;2024-02-23T08:40:38;102031.50;;;7.30;88.80
29461;BME280;16428;47.836;35.106;2024-02-23T08:43:06;102035.53;;;7.68;87.32
29461;BME280;16428;47.836;35.106;2024-02-23T08:45:34;102031.47;;;7.85;86.37
29461;BME280;16428;47.836;35.106;2024-02-23T08:48:01;102037.31;;;8.10;85.15
29461;BME280;16428;47.836;35.106;2024-02-23T08:50:28;102028.00;;;8.05;85.46
29461;BME280;16428;47.836;35.106;2024-02-23T08:52:56;102028.06;;;8.15;87.71
29461;BME280;16428;47.836;35.106;2024-02-23T08:55:23;102031.50;;;8.37;85.25
29461;BME280;16428;47.836;35.106;2024-02-23T08:57:50;102025.69;;;8.32;84.40
29461;BME280;16428;47.836;35.106;2024-02-23T09:00:18;102032.97;;;8.72;82.63
29461;BME280;16428;47.836;35.106;2024-02-23T09:02:45;102022.25;;;8.72;82.07
29461;BME280;16428;47.836;35.106;2024-02-23T09:05:12;102019.06;;;8.78;83.42
29461;BME280;16428;47.836;35.106;2024-02-23T09:07:39;102032.34;;;9.20;81.62
29461;BME280;16428;47.836;35.106;2024-02-23T09:10:07;102025.66;;;9.44;80.99
29461;BME280;16428;47.836;35.106;2024-02-23T09:12:35;102023.16;;;9.62;79.28
29461;BME280;16428;47.836;35.106;2024-02-23T09:15:03;102005.34;;;9.61;80.18
29461;BME280;16428;47.836;35.106;2024-02-23T09:17:30;102009.88;;;9.99;78.09
29461;BME280;16428;47.836;35.106;2024-02-23T09:19:57;101999.56;;;9.95;78.42
29461;BME280;16428;47.836;35.106;2024-02-23T09:22:25;102011.84;;;9.78;77.64
29461;BME280;16428;47.836;35.106;2024-02-23T09:24:52;102012.53;;;10.09;78.12
29461;BME280;16428;47.836;35.106;2024-02-23T09:27:22;102015.50;;;10.44;76.05
29461;BME280;16428;47.836;35.106;2024-02-23T09:29:49;102007.41;;;10.64;76.60
29461;BME280;16428;47.836;35.106;2024-02-23T09:32:17;102004.56;;;11.02;73.53
29461;BME280;16428;47.836;35.106;2024-02-23T09:34:44;102004.44;;;10.67;74.25
29461;BME280;16428;47.836;35.106;2024-02-23T09:37:11;102007.41;;;10.64;74.14
29461;BME280;16428;47.836;35.106;2024-02-23T09:39:38;102002.66;;;10.85;74.78
29461;BME280;16428;47.836;35.106;2024-02-23T09:42:09;102006.16;;;10.68;74.59
29461;BME280;16428;47.836;35.106;2024-02-23T09:44:37;102015.19;;;10.67;75.53
29461;BME280;16428;47.836;35.106;2024-02-23T09:47:05;102009.88;;;10.47;74.11
29461;BME280;16428;47.836;35.106;2024-02-23T09:49:40;102019.19;;;10.53;75.24
29461;BME280;16428;47.836;35.106;2024-02-23T09:52:08;102011.59;;;10.29;76.47
29461;BME280;16428;47.836;35.106;2024-02-23T09:54:39;102020.84;;;10.64;76.60
29461;BME280;16428;47.836;35.106;2024-02-23T09:57:07;102013.88;;;10.71;75.33
29461;BME280;16428;47.836;35.106;2024-02-23T09:59:36;102013.13;;;10.88;74.15
29461;BME280;16428;47.836;35.106;2024-02-23T10:02:07;102004.03;;;10.99;73.92
29461;BME280;16428;47.836;35.106;2024-02-23T10:04:36;101996.72;;;10.91;74.68
29461;BME280;16428;47.836;35.106;2024-02-23T10:07:03;101999.59;;;11.35;74.17
29461;BME280;16428;47.836;35.106;2024-02-23T10:09:31;101988.78;;;11.44;72.42
29461;BME280;16428;47.836;35.106;2024-02-23T10:11:58;102003.91;;;11.27;73.17
29461;BME280;16428;47.836;35.106;2024-02-23T10:14:26;101986.34;;;11.23;73.50
29461;BME280;16428;47.836;35.106;2024-02-23T10:16:53;102009.09;;;11.56;72.41
29461;BME280;16428;47.836;35.106;2024-02-23T10:19:22;101995.13;;;11.25;71.93
29461;BME280;16428;47.836;35.106;2024-02-23T10:21:49;101997.91;;;11.34;72.39
29461;BME280;16428;47.836;35.106;2024-02-23T10:24:17;102002.41;;;11.43;71.71
29461;BME280;16428;47.836;35.106;2024-02-23T10:26:44;102004.09;;;11.44;72.47
29461;BME280;16428;47.836;35.106;2024-02-23T10:29:12;102011.31;;;11.61;71.31
29461;BME280;16428;47.836;35.106;2024-02-23T10:31:46;102009.03;;;11.66;71.57
29461;BME280;16428;47.836;35.106;2024-02-23T10:34:19;102015.81;;;11.70;71.52
29461;BME280;16428;47.836;35.106;2024-02-23T10:36:47;102000.00;;;11.85;71.10
29461;BME280;16428;47.836;35.106;2024-02-23T10:39:16;102013.22;;;11.96;70.68
29461;BME280;16428;47.836;35.106;2024-02-23T10:41:49;102017.34;;;12.26;69.37
29461;BME280;16428;47.836;35.106;2024-02-23T10:44:20;102025.97;;;12.12;69.39
29461;BME280;16428;47.836;35.106;2024-02-23T10:46:48;102013.69;;;11.91;68.65
29461;BME280;16428;47.836;35.106;2024-02-23T10:49:18;102022.06;;;11.61;70.53
29461;BME280;16428;47.836;35.106;2024-02-23T10:51:51;102010.84;;;11.48;71.36
29461;BME280;16428;47.836;35.106;2024-02-23T10:54:19;102018.38;;;11.62;71.24
29461;BME280;16428;47.836;35.106;2024-02-23T10:56:49;101997.50;;;11.56;71.20
29461;BME280;16428;47.836;35.106;2024-02-23T10:59:17;101999.19;;;11.92;69.74
29461;BME280;16428;47.836;35.106;2024-02-23T11:01:50;101995.44;;;12.03;69.07
29461;BME280;16428;47.836;35.106;2024-02-23T11:04:19;101991.97;;;11.75;69.65
29461;BME280;16428;47.836;35.106;2024-02-23T11:06:51;101998.47;;;11.55;70.31
29461;BME280;16428;47.836;35.106;2024-02-23T11:09:23;102013.81;;;11.72;69.65
29461;BME280;16428;47.836;35.106;2024-02-23T11:11:55;102000.53;;;11.88;68.89
29461;BME280;16428;47.836;35.106;2024-02-23T11:14:35;101996.72;;;11.63;70.08
29461;BME280;16428;47.836;35.106;2024-02-23T11:17:04;101994.75;;;11.83;68.79
29461;BME280;16428;47.836;35.106;2024-02-23T11:19:39;101993.50;;;11.95;69.28
29461;BME280;16428;47.836;35.106;2024-02-23T11:22:09;101985.13;;;12.68;67.50
29461;BME280;16428;47.836;35.106;2024-02-23T11:24:49;101998.91;;;11.95;67.87
29461;BME280;16428;47.836;35.106;2024-02-23T11:27:24;101980.59;;;11.81;69.37
29461;BME280;16428;47.836;35.106;2024-02-23T11:30:02;101991.25;;;12.09;68.48
29461;BME280;16428;47.836;35.106;2024-02-23T11:32:39;101999.75;;;12.40;66.40
29461;BME280;16428;47.836;35.106;2024-02-23T11:35:10;101989.03;;;12.22;67.05
29461;BME280;16428;47.836;35.106;2024-02-23T11:37:48;101991.81;;;11.94;67.86
29461;BME280;16428;47.836;35.106;2024-02-23T11:40:19;102001.84;;;12.46;67.33
29461;BME280;16428;47.836;35.106;2024-02-23T11:42:47;101995.97;;;11.71;69.24
29461;BME280;16428;47.836;35.106;2024-02-23T11:45:14;101998.16;;;11.85;68.76
29461;BME280;16428;47.836;35.106;2024-02-23T11:47:41;101995.69;;;11.47;70.20
29461;BME280;16428;47.836;35.106;2024-02-23T11:50:10;101998.75;;;11.79;70.34
29461;BME280;16428;47.836;35.106;2024-02-23T11:52:37;101997.66;;;12.08;69.61
29461;BME280;16428;47.836;35.106;2024-02-23T11:55:06;101996.00;;;12.07;68.49
29461;BME280;16428;47.836;35.106;2024-02-23T11:57:34;101993.44;;;12.05;69.35
29461;BME280;16428;47.836;35.106;2024-02-23T12:00:13;101995.22;;;11.79;70.01
29461;BME280;16428;47.836;35.106;2024-02-23T12:02:43;101997.78;;;11.53;70.89
29461;BME280;16428;47.836;35.106;2024-02-23T12:05:11;101993.78;;;11.57;71.66
29461;BME280;16428;47.836;35.106;2024-02-23T12:07:41;102009.00;;;11.76;71.33
29461;BME280;16428;47.836;35.106;2024-02-23T12:10:13;101996.09;;;11.52;72.04
29461;BME280;16428;47.836;35.106;2024-02-23T12:12:40;101989.94;;;11.42;72.35
29461;BME280;16428;47.836;35.106;2024-02-23T12:15:08;101982.38;;;11.27;73.87
29461;BME280;16428;47.836;35.106;2024-02-23T12:17:36;101995.97;;;11.71;72.62
29461;BME280;16428;47.836;35.106;2024-02-23T12:20:07;101990.53;;;11.36;73.04
29461;BME280;16428;47.836;35.106;2024-02-23T12:22:35;101997.00;;;11.15;73.68
29461;BME280;16428;47.836;35.106;2024-02-23T12:25:02;102003.84;;;11.37;73.45
29461;BME280;16428;47.836;35.106;2024-02-23T12:27:30;101992.00;;;11.30;73.45
29461;BME280;16428;47.836;35.106;2024-02-23T12:29:57;101990.34;;;11.19;73.80
29461;BME280;16428;47.836;35.106;2024-02-23T12:32:24;101998.41;;;10.92;75.53
29461;BME280;16428;47.836;35.106;2024-02-23T12:34:52;101993.72;;;11.21;74.60
29461;BME280;16428;47.836;35.106;2024-02-23T12:37:20;101998.34;;;11.02;75.41
29461;BME280;16428;47.836;35.106;2024-02-23T12:39:49;101987.94;;;10.89;75.53
29461;BME280;16428;47.836;35.106;2024-02-23T12:42:18;101993.72;;;10.94;75.93
29461;BME280;16428;47.836;35.106;2024-02-23T12:44:45;101994.81;;;11.01;75.20